createdAt,value
2023-04-24T00:03:24.454Z,4.63
2023-04-24T00:05:51.668Z,2.67
2023-04-24T00:08:19.721Z,1.80
2023-04-24T00:10:46.948Z,1.20
2023-04-24T00:13:13.787Z,2.00
2023-04-24T00:15:40.965Z,2.10
2023-04-24T00:18:08.334Z,1.77
2023-04-24T00:20:37.226Z,5.07
2023-04-24T00:28:09.290Z,3.30
2023-04-24T00:30:36.686Z,3.13
2023-04-24T00:33:04.257Z,3.07
2023-04-24T00:35:31.533Z,1.70
2023-04-24T00:37:58.686Z,3.33
2023-04-24T00:40:25.626Z,2.93
2023-04-24T00:42:53.033Z,1.90
2023-04-24T00:48:01.898Z,2.27
2023-04-24T00:50:30.897Z,2.20
2023-04-24T00:52:58.399Z,2.43
2023-04-24T00:55:26.451Z,2.27
2023-04-24T00:57:54.247Z,2.83
2023-04-24T01:00:21.486Z,2.40
2023-04-24T01:02:49.105Z,3.57
2023-04-24T01:05:19.476Z,4.47
2023-04-24T01:12:47.348Z,5.00
2023-04-24T01:15:14.760Z,3.00
2023-04-24T01:17:41.559Z,2.90
2023-04-24T01:20:11.151Z,4.70
2023-04-24T01:22:39.090Z,3.47
2023-04-24T01:25:06.883Z,7.73
2023-04-24T01:27:34.348Z,3.00
2023-04-24T01:30:01.620Z,3.03
2023-04-24T01:37:33.826Z,6.53
2023-04-24T01:40:01.326Z,4.07
2023-04-24T01:42:28.704Z,4.33
2023-04-24T01:44:56.264Z,2.13
2023-04-24T01:47:24.217Z,2.63
2023-04-24T01:49:51.868Z,4.70
2023-04-24T01:52:19.832Z,8.93
2023-04-24T01:54:49.377Z,1.90
2023-04-24T02:02:19.666Z,9.00
2023-04-24T02:04:46.971Z,3.40
2023-04-24T02:07:14.202Z,3.30
2023-04-24T02:09:42.225Z,6.40
2023-04-24T02:12:09.501Z,6.13
2023-04-24T02:14:40.142Z,4.77
2023-04-24T02:17:07.510Z,4.07
2023-04-24T02:27:14.320Z,1.70
2023-04-24T02:29:41.791Z,1.53
2023-04-24T02:32:11.855Z,1.37
2023-04-24T02:34:39.128Z,4.70
2023-04-24T02:37:06.074Z,1.57
2023-04-24T02:39:33.306Z,1.70
2023-04-24T02:42:01.097Z,2.07
2023-04-24T02:44:29.289Z,3.20
2023-04-24T02:49:35.358Z,1.10
2023-04-24T02:52:02.449Z,1.73
2023-04-24T02:54:29.609Z,2.17
2023-04-24T02:56:57.489Z,1.40
2023-04-24T02:59:24.799Z,2.03
2023-04-24T03:01:52.148Z,2.23
2023-04-24T03:04:21.414Z,4.17
2023-04-24T03:09:33.418Z,1.77
2023-04-24T03:12:00.920Z,3.60
2023-04-24T03:14:30.311Z,4.40
2023-04-24T03:16:57.582Z,2.53
2023-04-24T03:19:24.651Z,1.80
2023-04-24T03:21:51.985Z,2.73
2023-04-24T03:24:18.789Z,2.13
2023-04-24T03:26:47.504Z,2.13
2023-04-24T03:34:20.091Z,4.40
2023-04-24T03:36:48.587Z,3.90
2023-04-24T03:39:15.412Z,4.03
2023-04-24T03:41:42.811Z,3.50
2023-04-24T03:44:10.005Z,2.43
2023-04-24T03:46:37.315Z,2.53
2023-04-24T03:49:04.656Z,3.43
2023-04-24T03:51:33.442Z,3.73
2023-04-24T03:59:06.187Z,4.07
2023-04-24T04:01:37.005Z,2.87
2023-04-24T04:04:04.269Z,1.90
2023-04-24T04:06:31.958Z,2.93
2023-04-24T04:08:59.047Z,2.17
2023-04-24T04:11:27.931Z,6.53
2023-04-24T04:13:55.457Z,2.70
2023-04-24T04:23:49.810Z,4.47
2023-04-24T04:26:17.288Z,2.23
2023-04-24T04:28:44.999Z,2.30
2023-04-24T04:31:11.994Z,3.77
2023-04-24T04:33:39.948Z,3.23
2023-04-24T04:36:07.523Z,5.43
2023-04-24T04:38:35.479Z,4.90
2023-04-24T04:48:49.434Z,4.53
2023-04-24T04:51:17.081Z,2.03
2023-04-24T04:53:44.189Z,2.23
2023-04-24T04:56:11.498Z,2.23
2023-04-24T04:58:38.676Z,1.93
2023-04-24T05:01:05.485Z,3.60
2023-04-24T05:03:33.029Z,4.50
2023-04-24T05:06:02.409Z,1.97
2023-04-24T05:13:38.980Z,2.57
2023-04-24T05:16:06.956Z,2.87
2023-04-24T05:18:34.332Z,4.23
2023-04-24T05:21:01.710Z,9.20
2023-04-24T05:23:29.114Z,2.97
2023-04-24T05:25:56.539Z,3.33
2023-04-24T05:28:24.182Z,3.60
2023-04-24T05:33:57.842Z,3.40
2023-04-24T05:36:25.068Z,3.53
2023-04-24T05:38:52.258Z,3.17
2023-04-24T05:41:19.507Z,3.50
2023-04-24T05:43:46.726Z,2.20
2023-04-24T05:46:13.672Z,4.67
2023-04-24T05:48:40.924Z,4.00
2023-04-24T05:53:50.214Z,2.83
2023-04-24T05:56:18.122Z,5.23
2023-04-24T05:58:45.929Z,11.57
2023-04-24T06:01:13.275Z,6.23
2023-04-24T06:03:42.135Z,4.50
2023-04-24T06:06:09.868Z,6.43
2023-04-24T06:08:36.906Z,4.30
2023-04-24T06:11:06.079Z,3.93
2023-04-24T06:19:06.547Z,6.50
2023-04-24T06:21:33.712Z,6.30
2023-04-24T06:24:01.019Z,4.50
2023-04-24T06:26:28.533Z,4.67
2023-04-24T06:28:56.166Z,6.70
2023-04-24T06:31:23.125Z,4.80
2023-04-24T06:33:50.501Z,4.70
2023-04-24T06:38:57.926Z,6.67
2023-04-24T06:41:24.777Z,4.53
2023-04-24T06:43:52.513Z,4.63
2023-04-24T06:46:22.588Z,5.80
2023-04-24T06:48:49.514Z,6.67
2023-04-24T06:51:18.157Z,7.17
2023-04-24T06:53:46.046Z,6.23
2023-04-24T07:01:18.221Z,6.53
2023-04-24T07:03:45.731Z,5.67
2023-04-24T07:06:13.224Z,6.57
2023-04-24T07:08:42.239Z,6.03
2023-04-24T07:11:09.640Z,5.53
2023-04-24T07:13:42.017Z,5.87
2023-04-24T07:16:10.233Z,5.90
2023-04-24T07:26:18.345Z,6.93
2023-04-24T07:28:45.602Z,5.47
2023-04-24T07:31:12.771Z,4.97
2023-04-24T07:33:39.987Z,5.63
2023-04-24T07:36:07.374Z,6.43
2023-04-24T07:38:34.452Z,3.90
2023-04-24T07:41:01.251Z,5.03
2023-04-24T07:46:16.276Z,7.27
2023-04-24T07:48:43.126Z,6.03
2023-04-24T07:51:11.370Z,7.23
2023-04-24T07:53:38.230Z,4.60
2023-04-24T07:56:06.196Z,5.47
2023-04-24T07:58:33.103Z,5.77
2023-04-24T08:01:00.432Z,4.43
2023-04-24T08:06:08.261Z,3.53
2023-04-24T08:08:35.599Z,3.00
2023-04-24T08:11:02.712Z,5.50
2023-04-24T08:13:30.253Z,3.40
2023-04-24T08:15:58.331Z,4.10
2023-04-24T08:18:25.698Z,4.47
2023-04-24T08:20:53.552Z,3.93
2023-04-24T08:26:01.218Z,3.07
2023-04-24T08:28:28.434Z,5.50
2023-04-24T08:30:55.324Z,2.83
2023-04-24T08:33:22.997Z,2.93
2023-04-24T08:35:50.510Z,3.50
2023-04-24T08:38:17.644Z,5.37
2023-04-24T08:40:46.468Z,3.97
2023-04-24T08:43:15.754Z,2.83
2023-04-24T08:50:45.149Z,3.83
2023-04-24T08:53:12.321Z,2.20
2023-04-24T08:55:39.838Z,2.27
2023-04-24T08:58:08.445Z,2.63
2023-04-24T09:00:35.975Z,2.83
2023-04-24T09:03:04.534Z,3.20
2023-04-24T09:05:32.342Z,5.37
2023-04-24T09:11:04.263Z,3.10
2023-04-24T09:13:32.906Z,2.60
2023-04-24T09:16:00.931Z,3.13
2023-04-24T09:18:28.232Z,3.40
2023-04-24T09:21:03.703Z,3.30
2023-04-24T09:23:32.547Z,3.63
2023-04-24T09:26:01.016Z,2.20
2023-04-24T09:28:32.518Z,2.10
2023-04-24T09:36:10.997Z,2.07
2023-04-24T09:38:39.378Z,2.70
2023-04-24T09:41:08.633Z,1.73
2023-04-24T09:43:36.734Z,1.87
2023-04-24T09:46:09.033Z,1.83
2023-04-24T09:48:38.757Z,1.67
2023-04-24T09:51:10.860Z,2.77
2023-04-24T09:56:20.859Z,1.70
2023-04-24T09:58:48.415Z,2.00
2023-04-24T10:01:16.101Z,1.97
2023-04-24T10:03:45.827Z,1.57
2023-04-24T10:06:14.256Z,1.53
2023-04-24T10:08:41.887Z,1.37
2023-04-24T10:11:11.420Z,5.37
2023-04-24T10:21:50.884Z,1.07
2023-04-24T10:24:20.906Z,1.07
2023-04-24T10:26:50.421Z,1.27
2023-04-24T10:29:20.469Z,2.00
2023-04-24T10:31:47.401Z,1.87
2023-04-24T10:34:17.879Z,1.27
2023-04-24T10:36:51.022Z,1.20
2023-04-24T10:42:58.709Z,2.50
2023-04-24T10:45:26.934Z,1.73
2023-04-24T10:47:59.631Z,2.80
2023-04-24T10:50:42.836Z,2.23
2023-04-24T10:53:17.596Z,2.20
2023-04-24T10:55:46.888Z,1.10
2023-04-24T10:58:17.106Z,2.23
2023-04-24T11:05:54.725Z,1.27
2023-04-24T11:08:28.654Z,1.03
2023-04-24T11:11:04.449Z,1.43
2023-04-24T11:14:10.073Z,1.53
2023-04-24T11:16:42.845Z,2.60
2023-04-24T11:19:19.001Z,4.03
2023-04-24T11:21:49.288Z,2.50
2023-04-24T11:30:02.906Z,2.27
2023-04-24T11:32:32.337Z,4.37
2023-04-24T11:35:01.661Z,1.80
2023-04-24T11:37:30.246Z,2.00
2023-04-24T11:39:59.481Z,2.37
2023-04-24T11:42:27.037Z,2.40
2023-04-24T11:44:56.871Z,3.93
2023-04-24T11:47:31.206Z,2.27
2023-04-24T11:55:02.877Z,4.60
2023-04-24T11:57:34.102Z,3.50
2023-04-24T12:00:01.841Z,3.00
2023-04-24T12:02:29.483Z,3.10
2023-04-24T12:04:57.293Z,5.07
2023-04-24T12:07:24.992Z,2.27
2023-04-24T12:09:58.734Z,3.10
2023-04-24T12:17:32.143Z,3.00
2023-04-24T12:20:01.064Z,3.57
2023-04-24T12:22:31.070Z,4.70
2023-04-24T12:25:13.322Z,3.33
2023-04-24T12:27:40.476Z,0.80
2023-04-24T12:30:13.826Z,0.63
2023-04-24T12:32:48.099Z,3.17
2023-04-24T12:38:07.152Z,1.50
2023-04-24T12:40:36.971Z,1.77
2023-04-24T12:43:15.180Z,1.13
2023-04-24T12:45:42.757Z,1.37
2023-04-24T12:48:10.179Z,1.67
2023-04-24T12:50:37.583Z,2.40
2023-04-24T12:53:06.860Z,2.20
2023-04-24T13:01:25.072Z,2.63
2023-04-24T13:03:52.138Z,5.40
2023-04-24T13:06:19.445Z,3.40
2023-04-24T13:08:47.750Z,1.90
2023-04-24T13:11:15.232Z,1.90
2023-04-24T13:13:43.167Z,2.20
2023-04-24T13:16:11.681Z,2.23
2023-04-24T13:23:08.446Z,3.20
2023-04-24T13:25:39.721Z,7.80
2023-04-24T13:28:08.420Z,3.10
2023-04-24T13:30:35.664Z,6.30
2023-04-24T13:33:03.946Z,6.63
2023-04-24T13:35:31.448Z,8.63
2023-04-24T13:38:01.518Z,5.43
2023-04-24T13:43:09.009Z,8.90
2023-04-24T13:45:36.173Z,8.10
2023-04-24T13:48:03.577Z,8.87
2023-04-24T13:50:30.998Z,8.00
2023-04-24T13:53:02.044Z,10.07
2023-04-24T13:55:29.874Z,9.53
2023-04-24T13:57:57.232Z,8.80
2023-04-24T14:00:26.363Z,10.37
2023-04-24T14:07:58.830Z,7.93
2023-04-24T14:10:26.384Z,17.07
2023-04-24T14:12:54.226Z,6.27
2023-04-24T14:15:21.632Z,15.83
2023-04-24T14:17:49.241Z,10.10
2023-04-24T14:20:16.810Z,8.47
2023-04-24T14:22:44.482Z,22.27
2023-04-24T14:27:51.367Z,10.17
2023-04-24T14:30:18.976Z,7.57
2023-04-24T14:32:46.067Z,8.40
2023-04-24T14:35:14.292Z,7.50
2023-04-24T14:37:41.697Z,5.70
2023-04-24T14:40:21.060Z,5.53
2023-04-24T14:42:58.392Z,7.93
2023-04-24T14:48:20.314Z,6.20
2023-04-24T14:50:48.117Z,6.80
2023-04-24T14:53:16.828Z,8.27
2023-04-24T14:55:44.397Z,6.83
2023-04-24T14:58:14.915Z,5.43
2023-04-24T15:00:42.420Z,6.63
2023-04-24T15:03:10.820Z,9.13
2023-04-24T15:08:31.143Z,8.37
2023-04-24T15:10:58.602Z,6.87
2023-04-24T15:13:26.269Z,11.03
2023-04-24T15:15:54.250Z,8.93
2023-04-24T15:18:21.206Z,6.57
2023-04-24T15:20:48.392Z,6.60
2023-04-24T15:23:19.453Z,8.73
2023-04-24T15:25:50.302Z,5.50
2023-04-24T15:33:27.338Z,7.20
2023-04-24T15:35:55.183Z,7.23
2023-04-24T15:38:22.646Z,9.07
2023-04-24T15:40:50.773Z,9.83
2023-04-24T15:43:18.335Z,7.03
2023-04-24T15:45:45.505Z,8.60
2023-04-24T15:48:13.731Z,6.47
2023-04-24T15:53:22.455Z,13.67
2023-04-24T15:55:50.811Z,6.77
2023-04-24T15:58:19.506Z,8.50
2023-04-24T16:00:46.789Z,5.57
2023-04-24T16:03:14.426Z,6.13
2023-04-24T16:05:41.448Z,8.63
2023-04-24T16:08:10.233Z,10.60
2023-04-24T16:13:20.821Z,6.97
2023-04-24T16:15:48.488Z,5.87
2023-04-24T16:18:17.012Z,6.07
2023-04-24T16:20:44.798Z,7.07
2023-04-24T16:23:12.378Z,7.40
2023-04-24T16:25:39.783Z,13.57
2023-04-24T16:28:07.024Z,10.03
2023-04-24T16:30:36.303Z,8.93
2023-04-24T16:38:07.924Z,7.20
2023-04-24T16:40:35.068Z,11.30
2023-04-24T16:43:02.053Z,7.13
2023-04-24T16:45:29.120Z,10.43
2023-04-24T16:47:56.960Z,10.00
2023-04-24T16:50:26.836Z,9.13
2023-04-24T16:52:54.017Z,7.97
2023-04-24T17:02:56.238Z,8.00
2023-04-24T17:05:25.729Z,11.50
2023-04-24T17:07:52.953Z,8.03
2023-04-24T17:10:20.319Z,4.80
2023-04-24T17:12:48.355Z,5.97
2023-04-24T17:15:15.745Z,8.00
2023-04-24T17:17:43.628Z,4.90
2023-04-24T17:22:52.311Z,8.13
2023-04-24T17:25:20.751Z,12.17
2023-04-24T17:27:47.896Z,5.93
2023-04-24T17:30:17.788Z,8.73
2023-04-24T17:32:45.253Z,9.63
2023-04-24T17:35:12.948Z,9.27
2023-04-24T17:37:40.360Z,6.13
2023-04-24T17:42:48.534Z,9.23
2023-04-24T17:45:15.812Z,5.23
2023-04-24T17:47:43.353Z,4.57
2023-04-24T17:50:10.921Z,7.10
2023-04-24T17:52:38.402Z,6.83
2023-04-24T17:55:06.953Z,6.77
2023-04-24T17:57:34.805Z,5.93
2023-04-24T18:05:06.547Z,5.23
2023-04-24T18:07:34.076Z,6.30
2023-04-24T18:10:01.192Z,8.37
2023-04-24T18:12:29.193Z,5.50
2023-04-24T18:15:13.249Z,4.87
2023-04-24T18:17:42.201Z,6.27
2023-04-24T18:20:11.562Z,5.67
2023-04-24T18:30:40.424Z,7.83
2023-04-24T18:33:09.065Z,5.07
2023-04-24T18:35:36.911Z,5.77
2023-04-24T18:38:04.708Z,5.80
2023-04-24T18:40:32.010Z,9.37
2023-04-24T18:42:59.246Z,5.33
2023-04-24T18:45:26.495Z,9.90
2023-04-24T18:47:55.255Z,10.57
2023-04-24T18:55:29.262Z,10.17
2023-04-24T18:58:00.171Z,10.33
2023-04-24T19:00:28.912Z,9.40
2023-04-24T19:02:57.269Z,7.43
2023-04-24T19:05:28.482Z,7.20
2023-04-24T19:07:57.454Z,8.60
2023-04-24T19:10:27.172Z,10.30
2023-04-24T19:17:59.374Z,9.40
2023-04-24T19:20:27.214Z,9.70
2023-04-24T19:22:54.870Z,10.30
2023-04-24T19:25:22.686Z,7.93
2023-04-24T19:27:49.988Z,8.30
2023-04-24T19:30:17.602Z,6.80
2023-04-24T19:32:44.519Z,9.43
2023-04-24T19:35:13.211Z,9.87
2023-04-24T19:42:46.211Z,9.27
2023-04-24T19:45:13.727Z,13.20
2023-04-24T19:47:42.589Z,10.77
2023-04-24T19:50:10.548Z,9.03
2023-04-24T19:52:37.987Z,9.00
2023-04-24T19:55:07.762Z,10.47
2023-04-24T19:57:37.143Z,10.30
2023-04-24T20:05:57.114Z,9.77
2023-04-24T20:08:25.242Z,10.97
2023-04-24T20:10:54.261Z,9.50
2023-04-24T20:13:22.151Z,11.10
2023-04-24T20:15:49.911Z,13.50
2023-04-24T20:18:21.481Z,10.23
2023-04-24T20:20:53.559Z,11.80
2023-04-24T20:26:01.530Z,13.07
2023-04-24T20:28:30.546Z,10.93
2023-04-24T20:30:59.678Z,11.57
2023-04-24T20:33:28.334Z,12.03
2023-04-24T20:35:56.041Z,10.87
2023-04-24T20:38:25.491Z,15.70
2023-04-24T20:40:58.168Z,17.27
2023-04-24T20:46:17.680Z,12.67
2023-04-24T20:48:45.722Z,11.53
2023-04-24T20:51:13.194Z,16.27
2023-04-24T20:53:40.479Z,11.07
2023-04-24T20:56:08.264Z,11.80
2023-04-24T20:58:35.657Z,15.73
2023-04-24T21:01:03.516Z,11.53
2023-04-24T21:11:28.344Z,12.80
2023-04-24T21:13:55.657Z,13.17
2023-04-24T21:16:22.966Z,14.63
2023-04-24T21:18:50.633Z,12.57
2023-04-24T21:21:17.528Z,13.20
2023-04-24T21:23:44.802Z,11.37
2023-04-24T21:26:11.919Z,11.83
2023-04-24T21:36:25.500Z,10.57
2023-04-24T21:38:52.439Z,12.07
2023-04-24T21:41:19.788Z,12.40
2023-04-24T21:43:48.412Z,10.87
2023-04-24T21:46:17.890Z,13.23
2023-04-24T21:48:46.724Z,10.50
2023-04-24T21:51:14.160Z,13.67
2023-04-24T21:56:20.860Z,14.67
2023-04-24T21:58:48.762Z,16.23
2023-04-24T22:01:15.912Z,14.93
2023-04-24T22:03:43.313Z,10.47
2023-04-24T22:06:14.234Z,13.50
2023-04-24T22:08:43.237Z,12.93
2023-04-24T22:11:19.922Z,12.77
2023-04-24T22:16:33.556Z,14.20
2023-04-24T22:19:00.915Z,11.73
2023-04-24T22:21:28.402Z,13.73
2023-04-24T22:23:55.771Z,17.13
2023-04-24T22:26:22.971Z,17.30
2023-04-24T22:28:50.158Z,16.77
2023-04-24T22:31:17.461Z,17.27
2023-04-24T22:36:33.709Z,25.67
2023-04-24T22:39:01.200Z,24.57
2023-04-24T22:41:28.702Z,22.67
2023-04-24T22:43:55.670Z,29.67
2023-04-24T22:46:24.315Z,23.20
2023-04-24T22:48:51.590Z,26.03
2023-04-24T22:51:18.613Z,24.20
2023-04-24T22:56:42.443Z,32.50
2023-04-24T22:59:09.505Z,28.23
2023-04-24T23:01:36.666Z,28.37
2023-04-24T23:04:04.175Z,30.17
2023-04-24T23:06:31.497Z,36.33
2023-04-24T23:08:58.674Z,34.90
2023-04-24T23:11:26.654Z,32.37
2023-04-24T23:19:33.315Z,33.57
2023-04-24T23:22:03.836Z,31.43
2023-04-24T23:24:31.157Z,33.83
2023-04-24T23:27:01.240Z,34.87
2023-04-24T23:29:28.062Z,35.67
2023-04-24T23:31:55.219Z,34.40
2023-04-24T23:34:22.957Z,33.00
2023-04-24T23:39:44.538Z,35.33
2023-04-24T23:42:11.282Z,29.73
2023-04-24T23:44:38.201Z,36.10
2023-04-24T23:47:05.849Z,36.97
2023-04-24T23:49:32.658Z,29.77
2023-04-24T23:52:00.079Z,29.83
2023-04-24T23:54:27.080Z,30.67
